createdAt,value
2023-05-15T00:01:44.923Z,13.47
2023-05-15T00:04:13.710Z,13.43
2023-05-15T00:06:42.906Z,13.40
2023-05-15T00:09:11.380Z,13.38
2023-05-15T00:11:39.863Z,13.34
2023-05-15T00:14:08.009Z,13.30
2023-05-15T00:16:36.406Z,13.29
2023-05-15T00:19:04.747Z,13.25
2023-05-15T00:21:33.102Z,13.21
2023-05-15T00:24:01.569Z,13.15
2023-05-15T00:26:31.158Z,13.09
2023-05-15T00:28:59.943Z,13.04
2023-05-15T00:31:28.552Z,12.99
2023-05-15T00:33:56.765Z,12.95
2023-05-15T00:36:26.118Z,12.91
2023-05-15T00:38:54.893Z,12.87
2023-05-15T00:41:24.680Z,12.82
2023-05-15T00:43:54.187Z,12.77
2023-05-15T00:46:24.871Z,12.70
2023-05-15T00:48:53.799Z,12.62
2023-05-15T00:51:22.046Z,12.56
2023-05-15T00:53:52.543Z,12.51
2023-05-15T00:56:22.659Z,12.47
2023-05-15T00:58:52.698Z,12.42
2023-05-15T01:01:20.873Z,12.38
2023-05-15T01:03:49.641Z,12.33
2023-05-15T01:06:18.268Z,12.27
2023-05-15T01:08:47.151Z,12.20
2023-05-15T01:11:17.505Z,12.15
2023-05-15T01:13:47.605Z,12.09
2023-05-15T01:16:15.779Z,12.06
2023-05-15T01:18:43.976Z,12.06
2023-05-15T01:21:24.382Z,12.08
2023-05-15T01:24:29.590Z,12.10
2023-05-15T01:27:26.224Z,12.12
2023-05-15T01:30:04.840Z,12.14
2023-05-15T01:33:02.122Z,12.18
2023-05-15T01:35:44.077Z,12.21
2023-05-15T01:38:27.948Z,12.23
2023-05-15T01:41:22.617Z,12.24
2023-05-15T01:43:58.102Z,12.24
2023-05-15T01:46:31.181Z,12.22
2023-05-15T01:49:01.618Z,12.21
2023-05-15T01:51:31.528Z,12.20
2023-05-15T01:54:00.836Z,12.21
2023-05-15T01:56:29.944Z,12.23
2023-05-15T01:59:00.778Z,12.22
2023-05-15T02:01:33.337Z,12.21
2023-05-15T02:04:03.828Z,12.23
2023-05-15T02:06:34.318Z,12.24
2023-05-15T02:09:03.990Z,12.25
2023-05-15T02:11:32.675Z,12.25
2023-05-15T02:14:01.690Z,12.25
2023-05-15T02:16:29.901Z,12.19
2023-05-15T02:19:00.776Z,12.13
2023-05-15T02:21:29.576Z,12.12
2023-05-15T02:23:58.026Z,12.11
2023-05-15T02:26:37.397Z,12.08
2023-05-15T02:29:39.224Z,12.06
2023-05-15T02:32:31.626Z,12.06
2023-05-15T02:35:08.621Z,12.03
2023-05-15T02:37:42.956Z,12.01
2023-05-15T02:40:13.491Z,11.97
2023-05-15T02:42:44.116Z,11.94
2023-05-15T02:45:13.069Z,11.92
2023-05-15T02:47:42.781Z,11.90
2023-05-15T02:50:12.273Z,11.86
2023-05-15T02:52:40.716Z,11.84
2023-05-15T02:55:09.968Z,11.84
2023-05-15T02:57:38.101Z,11.84
2023-05-15T03:00:13.566Z,11.85
2023-05-15T03:02:41.836Z,11.86
2023-05-15T03:05:12.785Z,11.88
2023-05-15T03:07:44.234Z,11.91
2023-05-15T03:10:12.416Z,11.96
2023-05-15T03:12:41.091Z,11.99
2023-05-15T03:15:09.893Z,12.02
2023-05-15T03:17:38.160Z,12.06
2023-05-15T03:20:09.219Z,12.08
2023-05-15T03:22:37.369Z,12.11
2023-05-15T03:25:06.837Z,12.13
2023-05-15T03:27:35.501Z,12.15
2023-05-15T03:30:05.019Z,12.17
2023-05-15T03:32:33.330Z,12.19
2023-05-15T03:35:01.571Z,12.21
2023-05-15T03:37:29.974Z,12.24
2023-05-15T03:39:59.477Z,12.26
2023-05-15T03:42:28.085Z,12.29
2023-05-15T03:44:56.891Z,12.32
2023-05-15T03:47:25.774Z,12.35
2023-05-15T03:49:54.559Z,12.39
2023-05-15T03:52:22.683Z,12.45
2023-05-15T03:54:50.907Z,12.53
2023-05-15T03:57:19.710Z,12.61
2023-05-15T03:59:47.947Z,12.69
2023-05-15T04:02:16.331Z,12.77
2023-05-15T04:04:44.926Z,12.84
2023-05-15T04:07:13.340Z,12.92
2023-05-15T04:09:41.716Z,13.01
2023-05-15T04:12:10.003Z,13.08
2023-05-15T04:14:38.104Z,13.16
2023-05-15T04:17:06.259Z,13.22
2023-05-15T04:19:34.652Z,13.31
2023-05-15T04:22:02.938Z,13.38
2023-05-15T04:24:31.432Z,13.46
2023-05-15T04:26:59.954Z,13.53
2023-05-15T04:29:28.386Z,13.60
2023-05-15T04:31:57.414Z,13.67
2023-05-15T04:34:26.490Z,13.73
2023-05-15T04:36:55.075Z,13.78
2023-05-15T04:39:23.559Z,13.83
2023-05-15T04:41:51.845Z,13.87
2023-05-15T04:44:20.224Z,13.91
2023-05-15T04:46:48.472Z,13.93
2023-05-15T04:49:17.119Z,13.96
2023-05-15T04:51:45.491Z,13.98
2023-05-15T04:54:13.591Z,14.00
2023-05-15T04:56:41.908Z,14.00
2023-05-15T04:59:11.292Z,14.01
2023-05-15T05:01:42.376Z,14.00
2023-05-15T05:04:11.120Z,14.00
2023-05-15T05:06:39.580Z,14.02
2023-05-15T05:09:07.974Z,14.06
2023-05-15T05:11:36.455Z,14.10
2023-05-15T05:14:04.667Z,14.15
2023-05-15T05:16:33.008Z,14.20
2023-05-15T05:19:01.667Z,14.25
2023-05-15T05:21:31.029Z,14.29
2023-05-15T05:23:59.603Z,14.35
2023-05-15T05:26:30.766Z,14.42
2023-05-15T05:29:02.618Z,14.49
2023-05-15T05:31:31.620Z,14.56
2023-05-15T05:34:00.415Z,14.63
2023-05-15T05:36:28.575Z,14.69
2023-05-15T05:38:56.922Z,14.73
2023-05-15T05:41:25.183Z,14.76
2023-05-15T05:43:53.547Z,14.79
2023-05-15T05:46:21.954Z,14.83
2023-05-15T05:48:50.200Z,14.87
2023-05-15T05:51:18.325Z,14.92
2023-05-15T05:53:46.766Z,14.97
2023-05-15T05:56:15.146Z,15.04
2023-05-15T05:58:43.474Z,15.12
2023-05-15T06:01:11.836Z,15.19
2023-05-15T06:03:43.498Z,15.26
2023-05-15T06:06:12.308Z,15.34
2023-05-15T06:08:40.985Z,15.40
2023-05-15T06:11:09.172Z,15.48
2023-05-15T06:13:38.042Z,15.55
2023-05-15T06:16:07.188Z,15.62
2023-05-15T06:18:35.377Z,15.71
2023-05-15T06:21:03.922Z,15.79
2023-05-15T06:23:32.027Z,15.87
2023-05-15T06:26:01.888Z,15.94
2023-05-15T06:28:30.489Z,16.03
2023-05-15T06:30:58.714Z,16.10
2023-05-15T06:33:27.056Z,16.19
2023-05-15T06:35:55.648Z,16.30
2023-05-15T06:38:24.029Z,16.42
2023-05-15T06:40:52.115Z,16.53
2023-05-15T06:43:20.383Z,16.63
2023-05-15T06:45:49.822Z,16.72
2023-05-15T06:48:18.624Z,16.84
2023-05-15T06:50:47.519Z,16.95
2023-05-15T06:53:17.835Z,17.02
2023-05-15T06:55:45.973Z,17.10
2023-05-15T06:58:14.585Z,17.18
2023-05-15T07:00:42.765Z,17.25
2023-05-15T07:03:11.299Z,17.31
2023-05-15T07:05:39.634Z,17.42
2023-05-15T07:08:08.140Z,17.48
2023-05-15T07:10:36.515Z,17.56
2023-05-15T07:13:05.027Z,17.63
2023-05-15T07:15:33.363Z,17.70
2023-05-15T07:18:01.871Z,17.78
2023-05-15T07:20:32.458Z,17.85
2023-05-15T07:23:03.705Z,17.92
2023-05-15T07:25:32.341Z,17.96
2023-05-15T07:28:00.870Z,18.02
2023-05-15T07:30:29.118Z,18.09
2023-05-15T07:32:57.389Z,18.14
2023-05-15T07:35:26.427Z,18.21
2023-05-15T07:37:55.147Z,18.28
2023-05-15T07:40:23.845Z,18.38
2023-05-15T07:42:52.003Z,18.48
2023-05-15T07:45:20.279Z,18.55
2023-05-15T07:47:49.540Z,18.59
2023-05-15T07:50:18.096Z,18.69
2023-05-15T07:52:46.215Z,18.74
2023-05-15T07:55:14.515Z,18.80
2023-05-15T07:57:42.635Z,18.90
2023-05-15T08:00:13.530Z,18.99
2023-05-15T08:02:46.497Z,19.11
2023-05-15T08:05:15.673Z,19.23
2023-05-15T08:07:44.213Z,19.34
2023-05-15T08:10:13.645Z,19.43
2023-05-15T08:12:46.684Z,19.51
2023-05-15T08:15:15.542Z,19.58
2023-05-15T08:17:44.016Z,19.63
2023-05-15T08:20:13.277Z,19.68
2023-05-15T08:22:41.669Z,19.74
2023-05-15T08:25:10.658Z,19.82
2023-05-15T08:27:38.935Z,19.93
2023-05-15T08:30:08.651Z,20.01
2023-05-15T08:32:36.954Z,20.09
2023-05-15T08:35:05.783Z,20.14
2023-05-15T08:37:34.324Z,20.23
2023-05-15T08:40:05.426Z,20.36
2023-05-15T08:42:43.744Z,20.46
2023-05-15T08:45:14.271Z,20.56
2023-05-15T08:47:44.047Z,20.71
2023-05-15T08:50:17.566Z,20.87
2023-05-15T08:52:49.804Z,21.02
2023-05-15T08:55:18.206Z,21.18
2023-05-15T08:57:48.569Z,21.37
2023-05-15T09:00:20.192Z,21.55
2023-05-15T09:02:48.694Z,21.69
2023-05-15T09:05:17.266Z,21.79
2023-05-15T09:07:46.442Z,21.85
2023-05-15T09:10:15.172Z,21.91
2023-05-15T09:12:44.619Z,22.03
2023-05-15T09:15:18.137Z,22.22
2023-05-15T09:17:46.465Z,22.44
2023-05-15T09:20:32.733Z,22.68
2023-05-15T09:23:04.106Z,22.98
2023-05-15T09:25:37.673Z,23.29
2023-05-15T09:28:10.883Z,23.53
2023-05-15T09:30:41.848Z,23.69
2023-05-15T09:33:10.025Z,23.73
2023-05-15T09:35:39.593Z,23.73
2023-05-15T09:38:12.874Z,23.81
2023-05-15T09:40:41.229Z,24.03
2023-05-15T09:43:12.409Z,24.25
2023-05-15T09:45:40.642Z,24.48
2023-05-15T09:48:12.033Z,24.84
2023-05-15T09:50:41.814Z,25.18
2023-05-15T09:53:13.518Z,25.49
2023-05-15T09:55:43.596Z,25.71
2023-05-15T09:58:14.134Z,25.80
2023-05-15T10:00:47.660Z,25.80
2023-05-15T10:03:20.405Z,26.21
2023-05-15T10:05:48.803Z,26.71
2023-05-15T10:08:28.416Z,27.01
2023-05-15T10:11:01.270Z,27.38
2023-05-15T10:13:32.525Z,27.64
2023-05-15T10:16:03.645Z,27.94
2023-05-15T10:18:34.062Z,28.23
2023-05-15T10:21:04.482Z,28.49
2023-05-15T10:23:35.924Z,28.72
2023-05-15T10:26:13.927Z,28.98
2023-05-15T10:28:45.289Z,29.15
2023-05-15T10:31:14.271Z,29.08
2023-05-15T10:33:43.938Z,28.64
2023-05-15T10:36:14.603Z,28.21
2023-05-15T10:38:43.863Z,27.79
2023-05-15T10:41:17.636Z,27.55
2023-05-15T10:43:47.176Z,27.66
2023-05-15T10:46:16.995Z,27.98
2023-05-15T10:48:48.443Z,28.20
2023-05-15T10:51:26.266Z,28.40
2023-05-15T10:53:55.882Z,28.48
2023-05-15T10:56:30.913Z,28.51
2023-05-15T10:59:07.574Z,28.55
2023-05-15T11:01:38.375Z,28.61
2023-05-15T11:04:15.935Z,28.51
2023-05-15T11:06:46.706Z,28.35
2023-05-15T11:09:28.102Z,28.25
2023-05-15T11:12:00.756Z,28.00
2023-05-15T11:14:31.029Z,27.75
2023-05-15T11:17:01.182Z,27.67
2023-05-15T11:19:31.700Z,27.76
2023-05-15T11:22:01.232Z,27.94
2023-05-15T11:24:52.070Z,27.94
2023-05-15T11:27:23.363Z,27.89
2023-05-15T11:30:22.413Z,27.82
2023-05-15T11:33:00.042Z,27.75
2023-05-15T11:35:46.085Z,27.63
2023-05-15T11:38:15.386Z,27.39
2023-05-15T11:40:47.457Z,27.29
2023-05-15T11:43:24.828Z,27.44
2023-05-15T11:45:58.358Z,27.28
2023-05-15T11:48:35.351Z,27.05
2023-05-15T11:51:05.870Z,26.94
2023-05-15T11:53:34.077Z,26.97
2023-05-15T11:56:02.431Z,27.00
2023-05-15T11:58:31.152Z,26.95
2023-05-15T12:00:59.197Z,27.03
2023-05-15T12:03:33.282Z,27.09
2023-05-15T12:06:03.178Z,27.25
2023-05-15T12:08:36.230Z,27.55
2023-05-15T12:11:05.124Z,27.90
2023-05-15T12:13:34.671Z,28.32
2023-05-15T12:16:04.392Z,28.56
2023-05-15T12:18:33.712Z,28.92
2023-05-15T12:21:01.979Z,29.23
2023-05-15T12:23:30.041Z,29.54
2023-05-15T12:26:03.118Z,29.83
2023-05-15T12:28:35.611Z,30.17
2023-05-15T12:31:04.230Z,30.33
2023-05-15T12:33:32.800Z,30.70
2023-05-15T12:36:01.762Z,30.92
2023-05-15T12:38:30.935Z,31.15
2023-05-15T12:41:01.695Z,31.36
2023-05-15T12:43:31.968Z,31.43
2023-05-15T12:46:00.341Z,31.74
2023-05-15T12:48:32.673Z,31.99
2023-05-15T12:51:07.369Z,32.26
2023-05-15T12:53:39.894Z,32.37
2023-05-15T12:56:16.377Z,32.31
2023-05-15T12:58:44.625Z,31.97
2023-05-15T13:01:12.992Z,31.50
2023-05-15T13:03:44.446Z,31.16
2023-05-15T13:06:12.979Z,30.87
2023-05-15T13:08:41.934Z,30.27
2023-05-15T13:11:14.515Z,29.58
2023-05-15T13:13:47.831Z,29.18
2023-05-15T13:16:25.488Z,28.96
2023-05-15T13:18:53.934Z,28.73
2023-05-15T13:21:22.438Z,28.66
2023-05-15T13:23:52.144Z,28.67
2023-05-15T13:26:21.039Z,28.67
2023-05-15T13:28:50.171Z,28.70
2023-05-15T13:31:18.676Z,28.54
2023-05-15T13:33:46.996Z,28.50
2023-05-15T13:36:15.128Z,28.56
2023-05-15T13:38:43.685Z,28.68
2023-05-15T13:41:12.174Z,28.76
2023-05-15T13:43:40.663Z,28.82
2023-05-15T13:46:09.325Z,28.77
2023-05-15T13:48:37.440Z,28.49
2023-05-15T13:51:05.456Z,28.17
2023-05-15T13:53:34.346Z,27.93
2023-05-15T13:56:06.504Z,27.93
2023-05-15T13:58:35.068Z,28.19
2023-05-15T14:01:07.013Z,28.68
2023-05-15T14:03:35.425Z,29.10
2023-05-15T14:06:04.317Z,29.43
2023-05-15T14:08:38.930Z,29.79
2023-05-15T14:11:07.409Z,29.92
2023-05-15T14:13:35.918Z,30.38
2023-05-15T14:16:04.042Z,30.57
2023-05-15T14:18:32.386Z,30.85
2023-05-15T14:21:00.751Z,31.09
2023-05-15T14:23:29.019Z,30.86
2023-05-15T14:25:57.893Z,30.51
2023-05-15T14:28:26.667Z,30.28
2023-05-15T14:30:54.795Z,30.11
2023-05-15T14:33:22.934Z,30.25
2023-05-15T14:35:51.608Z,30.40
2023-05-15T14:38:19.942Z,30.64
2023-05-15T14:40:48.033Z,30.63
2023-05-15T14:43:16.337Z,30.34
2023-05-15T14:45:44.684Z,30.29
2023-05-15T14:48:13.004Z,30.74
2023-05-15T14:50:41.239Z,30.98
2023-05-15T14:53:09.629Z,31.34
2023-05-15T14:55:37.731Z,31.58
2023-05-15T14:58:06.289Z,31.88
2023-05-15T15:00:34.673Z,32.14
2023-05-15T15:03:03.118Z,32.28
2023-05-15T15:05:32.045Z,32.40
2023-05-15T15:08:04.967Z,32.43
2023-05-15T15:10:35.331Z,32.30
2023-05-15T15:13:05.113Z,32.20
2023-05-15T15:15:34.891Z,31.82
2023-05-15T15:18:03.612Z,31.45
2023-05-15T15:20:31.831Z,31.26
2023-05-15T15:23:00.836Z,31.12
2023-05-15T15:25:30.874Z,30.91
2023-05-15T15:28:02.332Z,30.78
2023-05-15T15:30:31.467Z,30.60
2023-05-15T15:33:00.967Z,30.07
2023-05-15T15:35:29.287Z,29.36
2023-05-15T15:37:57.671Z,28.78
2023-05-15T15:40:26.566Z,28.60
2023-05-15T15:42:55.255Z,28.64
2023-05-15T15:45:23.508Z,28.93
2023-05-15T15:47:52.102Z,29.13
2023-05-15T15:50:20.435Z,29.04
2023-05-15T15:52:48.563Z,29.15
2023-05-15T15:55:16.746Z,29.35
2023-05-15T15:57:45.127Z,29.54
2023-05-15T16:00:14.479Z,29.66
2023-05-15T16:02:42.759Z,29.78
2023-05-15T16:05:11.483Z,29.83
2023-05-15T16:07:39.931Z,29.75
2023-05-15T16:10:13.188Z,29.23
2023-05-15T16:12:42.728Z,28.55
2023-05-15T16:17:44.274Z,27.67
2023-05-15T16:20:12.861Z,27.35
2023-05-15T16:22:41.967Z,26.93
2023-05-15T16:25:10.879Z,26.49
2023-05-15T16:27:39.265Z,26.07
2023-05-15T16:30:09.459Z,25.82
2023-05-15T16:32:37.752Z,25.61
2023-05-15T16:35:06.820Z,25.44
2023-05-15T16:37:34.980Z,25.31
2023-05-15T16:40:04.307Z,25.15
2023-05-15T16:42:38.009Z,24.96
2023-05-15T16:45:08.513Z,24.79
2023-05-15T16:47:38.515Z,24.58
2023-05-15T16:50:07.757Z,24.37
2023-05-15T16:52:36.157Z,24.17
2023-05-15T16:55:05.438Z,23.97
2023-05-15T16:57:33.574Z,23.84
2023-05-15T17:00:01.683Z,23.70
2023-05-15T17:02:30.076Z,23.57
2023-05-15T17:04:58.731Z,23.44
2023-05-15T17:07:27.114Z,23.27
2023-05-15T17:09:55.931Z,23.09
2023-05-15T17:12:24.083Z,22.84
2023-05-15T17:14:52.693Z,22.67
2023-05-15T17:17:21.050Z,22.54
2023-05-15T17:19:49.290Z,22.40
2023-05-15T17:22:17.326Z,22.26
2023-05-15T17:24:51.273Z,22.13
2023-05-15T17:27:20.711Z,21.98
2023-05-15T17:29:49.942Z,21.84
2023-05-15T17:32:18.553Z,21.74
2023-05-15T17:34:46.739Z,21.61
2023-05-15T17:37:15.221Z,21.50
2023-05-15T17:39:43.549Z,21.42
2023-05-15T17:42:11.957Z,21.31
2023-05-15T17:44:40.459Z,21.19
2023-05-15T17:47:10.394Z,21.09
2023-05-15T17:49:39.412Z,20.99
2023-05-15T17:52:07.945Z,20.89
2023-05-15T17:54:36.325Z,20.81
2023-05-15T17:57:07.593Z,20.75
2023-05-15T17:59:36.176Z,20.68
2023-05-15T18:02:06.329Z,20.60
2023-05-15T18:04:35.043Z,20.55
2023-05-15T18:07:06.452Z,20.51
2023-05-15T18:09:35.034Z,20.46
2023-05-15T18:12:03.590Z,20.41
2023-05-15T18:14:32.387Z,20.35
2023-05-15T18:17:00.566Z,20.29
2023-05-15T18:19:28.818Z,20.21
2023-05-15T18:21:57.679Z,20.12
2023-05-15T18:24:25.859Z,20.05
2023-05-15T18:26:54.288Z,19.95
2023-05-15T18:29:22.381Z,19.88
2023-05-15T18:31:50.854Z,19.80
2023-05-15T18:34:21.750Z,19.73
2023-05-15T18:36:52.151Z,19.68
2023-05-15T18:39:20.695Z,19.59
2023-05-15T18:41:48.752Z,19.51
2023-05-15T18:44:17.031Z,19.47
2023-05-15T18:46:45.453Z,19.44
2023-05-15T18:49:14.102Z,19.43
2023-05-15T18:51:42.167Z,19.38
2023-05-15T18:54:10.259Z,19.37
2023-05-15T18:56:38.677Z,19.36
2023-05-15T18:59:08.771Z,19.33
2023-05-15T19:01:37.427Z,19.30
2023-05-15T19:04:05.647Z,19.28
2023-05-15T19:06:34.235Z,19.23
2023-05-15T19:09:02.670Z,19.21
2023-05-15T19:11:30.966Z,19.18
2023-05-15T19:13:59.077Z,19.14
2023-05-15T19:16:28.769Z,19.10
2023-05-15T19:18:57.263Z,19.07
2023-05-15T19:21:26.150Z,19.05
2023-05-15T19:23:54.586Z,19.02
2023-05-15T19:26:23.361Z,18.99
2023-05-15T19:28:53.169Z,18.94
2023-05-15T19:33:56.105Z,18.88
2023-05-15T19:36:24.212Z,18.86
2023-05-15T19:38:52.554Z,18.79
2023-05-15T19:41:22.375Z,18.71
2023-05-15T19:43:51.093Z,18.65
2023-05-15T19:46:20.031Z,18.59
2023-05-15T19:48:48.306Z,18.52
2023-05-15T19:51:16.778Z,18.41
2023-05-15T19:53:45.194Z,18.33
2023-05-15T19:56:14.161Z,18.25
2023-05-15T19:58:42.405Z,18.20
2023-05-15T20:01:10.868Z,18.17
2023-05-15T20:03:39.452Z,18.15
2023-05-15T20:06:12.344Z,18.13
2023-05-15T20:08:40.564Z,18.11
2023-05-15T20:11:08.806Z,18.12
2023-05-15T20:13:37.666Z,18.12
2023-05-15T20:16:10.904Z,18.10
2023-05-15T20:18:40.071Z,18.07
2023-05-15T20:21:08.279Z,18.03
2023-05-15T20:23:36.288Z,17.98
2023-05-15T20:26:04.734Z,17.96
2023-05-15T20:28:33.531Z,17.94
2023-05-15T20:31:02.085Z,17.91
2023-05-15T20:33:30.625Z,17.85
2023-05-15T20:36:00.299Z,17.78
2023-05-15T20:38:28.708Z,17.74
2023-05-15T20:40:57.395Z,17.74
2023-05-15T20:43:25.546Z,17.75
2023-05-15T20:45:53.976Z,17.75
2023-05-15T20:48:22.467Z,17.73
2023-05-15T20:50:53.220Z,17.71
2023-05-15T20:53:22.009Z,17.69
2023-05-15T20:55:50.286Z,17.66
2023-05-15T20:58:18.647Z,17.64
2023-05-15T21:00:47.176Z,17.63
2023-05-15T21:03:15.596Z,17.60
2023-05-15T21:05:44.700Z,17.58
2023-05-15T21:08:14.304Z,17.56
2023-05-15T21:10:42.535Z,17.53
2023-05-15T21:13:10.718Z,17.51
2023-05-15T21:15:39.021Z,17.50
2023-05-15T21:18:09.736Z,17.48
2023-05-15T21:20:40.245Z,17.44
2023-05-15T21:23:08.587Z,17.42
2023-05-15T21:25:38.158Z,17.39
2023-05-15T21:28:06.433Z,17.35
2023-05-15T21:30:34.658Z,17.30
2023-05-15T21:33:03.025Z,17.28
2023-05-15T21:35:31.922Z,17.24
2023-05-15T21:38:00.511Z,17.19
2023-05-15T21:40:31.341Z,17.15
2023-05-15T21:43:04.309Z,17.10
2023-05-15T21:45:32.728Z,17.07
2023-05-15T21:48:01.587Z,17.02
2023-05-15T21:50:30.056Z,16.99
2023-05-15T21:52:58.679Z,16.97
2023-05-15T21:55:27.028Z,16.94
2023-05-15T21:57:55.438Z,16.91
2023-05-15T22:00:24.612Z,16.89
2023-05-15T22:02:55.629Z,16.89
2023-05-15T22:05:24.308Z,16.87
2023-05-15T22:07:52.389Z,16.90
2023-05-15T22:10:20.435Z,16.91
2023-05-15T22:13:02.969Z,16.92
2023-05-15T22:15:31.417Z,16.93
2023-05-15T22:18:00.626Z,16.91
2023-05-15T22:20:29.415Z,16.91
2023-05-15T22:22:57.796Z,16.90
2023-05-15T22:25:26.509Z,16.88
2023-05-15T22:28:00.910Z,16.87
2023-05-15T22:30:29.822Z,16.88
2023-05-15T22:32:58.209Z,16.86
2023-05-15T22:35:28.930Z,16.85
2023-05-15T22:38:00.387Z,16.82
2023-05-15T22:40:28.860Z,16.79
2023-05-15T22:42:57.155Z,16.79
2023-05-15T22:45:25.454Z,16.79
2023-05-15T22:47:53.746Z,16.77
2023-05-15T22:50:22.209Z,16.76
2023-05-15T22:52:50.296Z,16.77
2023-05-15T22:55:18.933Z,16.76
2023-05-15T22:57:47.870Z,16.75
2023-05-15T23:00:17.635Z,16.74
2023-05-15T23:02:45.919Z,16.74
2023-05-15T23:05:17.391Z,16.70
2023-05-15T23:08:11.705Z,16.68
2023-05-15T23:10:58.608Z,16.64
2023-05-15T23:13:29.246Z,16.62
2023-05-15T23:15:57.523Z,16.59
2023-05-15T23:18:26.024Z,16.56
2023-05-15T23:20:54.415Z,16.54
2023-05-15T23:23:22.574Z,16.49
2023-05-15T23:25:51.469Z,16.45
2023-05-15T23:28:20.572Z,16.42
2023-05-15T23:30:49.123Z,16.39
2023-05-15T23:33:17.547Z,16.35
2023-05-15T23:35:45.765Z,16.28
2023-05-15T23:38:13.989Z,16.27
2023-05-15T23:40:42.206Z,16.25
2023-05-15T23:43:10.374Z,16.23
2023-05-15T23:45:42.874Z,16.22
2023-05-15T23:48:11.578Z,16.21
2023-05-15T23:50:40.369Z,16.21
2023-05-15T23:53:08.819Z,16.19
2023-05-15T23:55:37.213Z,16.18
2023-05-15T23:58:05.758Z,16.16
